sensor_id;sensor_type;location;lat;lon;timestamp;pressure;altitude;pressure_sealevel;temperature;humidity
42633;BME280;28261;53.304;-6.284;2023-07-13T00:00:52;100836.31;;;13.41;100.00
42633;BME280;28261;53.304;-6.284;2023-07-13T00:02:57;100829.28;;;13.40;100.00
42633;BME280;28261;53.304;-6.284;2023-07-13T00:05:02;100833.78;;;13.40;100.00
42633;BME280;28261;53.304;-6.284;2023-07-13T00:07:07;100837.28;;;13.40;100.00
42633;BME280;28261;53.304;-6.284;2023-07-13T00:09:11;100831.94;;;13.40;100.00
42633;BME280;28261;53.304;-6.284;2023-07-13T00:11:16;100835.44;;;13.41;100.00
42633;BME280;28261;53.304;-6.284;2023-07-13T00:13:20;100842.47;;;13.42;100.00
42633;BME280;28261;53.304;-6.284;2023-07-13T00:15:27;100838.00;;;13.42;100.00
42633;BME280;28261;53.304;-6.284;2023-07-13T00:17:34;100828.31;;;13.41;100.00
42633;BME280;28261;53.304;-6.284;2023-07-13T00:19:37;100829.28;;;13.40;100.00
42633;BME280;28261;53.304;-6.284;2023-07-13T00:21:43;100832.66;;;13.42;100.00
42633;BME280;28261;53.304;-6.284;2023-07-13T00:23:48;100828.19;;;13.43;100.00
42633;BME280;28261;53.304;-6.284;2023-07-13T00:25:52;100838.72;;;13.44;100.00
42633;BME280;28261;53.304;-6.284;2023-07-13T00:27:59;100838.72;;;13.44;99.76
42633;BME280;28261;53.304;-6.284;2023-07-13T00:30:05;100838.00;;;13.42;99.74
42633;BME280;28261;53.304;-6.284;2023-07-13T00:32:09;100830.13;;;13.41;99.56
42633;BME280;28261;53.304;-6.284;2023-07-13T00:34:13;100835.44;;;13.41;100.00
42633;BME280;28261;53.304;-6.284;2023-07-13T00:36:19;100835.44;;;13.41;99.88
42633;BME280;28261;53.304;-6.284;2023-07-13T00:38:25;100833.78;;;13.40;99.62
42633;BME280;28261;53.304;-6.284;2023-07-13T00:40:29;100832.91;;;13.39;99.52
42633;BME280;28261;53.304;-6.284;2023-07-13T00:42:33;100843.56;;;13.39;99.18
42633;BME280;28261;53.304;-6.284;2023-07-13T00:44:38;100843.56;;;13.39;99.01
42633;BME280;28261;53.304;-6.284;2023-07-13T00:46:45;100839.19;;;13.38;99.03
42633;BME280;28261;53.304;-6.284;2023-07-13T00:48:51;100841.84;;;13.38;98.88
42633;BME280;28261;53.304;-6.284;2023-07-13T00:50:58;100843.56;;;13.39;98.92
42633;BME280;28261;53.304;-6.284;2023-07-13T00:53:03;100845.25;;;13.40;99.39
42633;BME280;28261;53.304;-6.284;2023-07-13T00:55:09;100842.59;;;13.40;98.99
42633;BME280;28261;53.304;-6.284;2023-07-13T00:57:16;100838.22;;;13.39;99.92
42633;BME280;28261;53.304;-6.284;2023-07-13T00:59:22;100836.53;;;13.38;99.85
42633;BME280;28261;53.304;-6.284;2023-07-13T01:01:26;100834.63;;;13.40;99.51
42633;BME280;28261;53.304;-6.284;2023-07-13T01:03:31;100831.00;;;13.41;100.00
42633;BME280;28261;53.304;-6.284;2023-07-13T01:05:36;100836.19;;;13.43;99.25
42633;BME280;28261;53.304;-6.284;2023-07-13T01:07:43;100831.69;;;13.43;99.10
42633;BME280;28261;53.304;-6.284;2023-07-13T01:09:49;100826.25;;;13.45;98.86
42633;BME280;28261;53.304;-6.284;2023-07-13T01:11:57;100829.78;;;13.45;98.79
42633;BME280;28261;53.304;-6.284;2023-07-13T01:14:02;100834.38;;;13.43;98.33
42633;BME280;28261;53.304;-6.284;2023-07-13T01:16:17;100830.88;;;13.43;99.03
42633;BME280;28261;53.304;-6.284;2023-07-13T01:18:25;100831.69;;;13.43;99.19
42633;BME280;28261;53.304;-6.284;2023-07-13T01:20:31;100832.56;;;13.44;98.65
42633;BME280;28261;53.304;-6.284;2023-07-13T01:22:40;100833.53;;;13.43;99.03
42633;BME280;28261;53.304;-6.284;2023-07-13T01:24:46;100838.00;;;13.42;98.62
42633;BME280;28261;53.304;-6.284;2023-07-13T01:26:52;100828.19;;;13.43;99.64
42633;BME280;28261;53.304;-6.284;2023-07-13T01:28:57;100826.38;;;13.43;99.08
42633;BME280;28261;53.304;-6.284;2023-07-13T01:31:00;100824.59;;;13.44;98.89
42633;BME280;28261;53.304;-6.284;2023-07-13T01:33:06;100829.91;;;13.44;99.02
42633;BME280;28261;53.304;-6.284;2023-07-13T01:35:12;100829.03;;;13.43;98.90
42633;BME280;28261;53.304;-6.284;2023-07-13T01:37:17;100827.34;;;13.42;98.81
42633;BME280;28261;53.304;-6.284;2023-07-13T01:39:23;100826.50;;;13.42;98.81
42633;BME280;28261;53.304;-6.284;2023-07-13T01:41:27;100825.03;;;13.37;98.51
42633;BME280;28261;53.304;-6.284;2023-07-13T01:43:30;100827.81;;;13.36;98.83
42633;BME280;28261;53.304;-6.284;2023-07-13T01:45:34;100822.72;;;13.33;99.25
42633;BME280;28261;53.304;-6.284;2023-07-13T01:47:39;100829.00;;;13.32;99.28
42633;BME280;28261;53.304;-6.284;2023-07-13T01:49:43;100824.63;;;13.31;98.71
42633;BME280;28261;53.304;-6.284;2023-07-13T01:51:49;100817.59;;;13.30;98.41
42633;BME280;28261;53.304;-6.284;2023-07-13T01:53:53;100821.25;;;13.29;98.93
42633;BME280;28261;53.304;-6.284;2023-07-13T01:55:59;100821.25;;;13.29;98.88
42633;BME280;28261;53.304;-6.284;2023-07-13T01:58:04;100814.22;;;13.28;98.54
42633;BME280;28261;53.304;-6.284;2023-07-13T02:00:10;100815.06;;;13.28;99.05
42633;BME280;28261;53.304;-6.284;2023-07-13T02:02:17;100820.50;;;13.27;98.60
42633;BME280;28261;53.304;-6.284;2023-07-13T02:04:22;100816.88;;;13.28;98.37
42633;BME280;28261;53.304;-6.284;2023-07-13T02:06:26;100822.34;;;13.26;98.59
42633;BME280;28261;53.304;-6.284;2023-07-13T02:08:30;100825.13;;;13.25;98.86
42633;BME280;28261;53.304;-6.284;2023-07-13T02:10:34;100817.34;;;13.21;98.18
42633;BME280;28261;53.304;-6.284;2023-07-13T02:12:40;100825.44;;;13.20;99.01
42633;BME280;28261;53.304;-6.284;2023-07-13T02:14:44;100823.88;;;13.17;99.48
42633;BME280;28261;53.304;-6.284;2023-07-13T02:16:47;100824.63;;;13.19;99.56
42633;BME280;28261;53.304;-6.284;2023-07-13T02:18:52;100824.63;;;13.19;99.49
42633;BME280;28261;53.304;-6.284;2023-07-13T02:20:57;100828.97;;;13.20;98.93
42633;BME280;28261;53.304;-6.284;2023-07-13T02:22:59;100829.81;;;13.21;100.00
42633;BME280;28261;53.304;-6.284;2023-07-13T02:25:05;100823.66;;;13.20;100.00
42633;BME280;28261;53.304;-6.284;2023-07-13T02:27:09;100831.66;;;13.20;98.99
42633;BME280;28261;53.304;-6.284;2023-07-13T02:29:13;100821.84;;;13.21;99.16
42633;BME280;28261;53.304;-6.284;2023-07-13T02:31:20;100826.53;;;13.17;99.44
42633;BME280;28261;53.304;-6.284;2023-07-13T02:33:24;100830.19;;;13.16;99.73
42633;BME280;28261;53.304;-6.284;2023-07-13T02:35:27;100832.84;;;13.16;99.97
42633;BME280;28261;53.304;-6.284;2023-07-13T02:37:33;100826.66;;;13.16;99.49
42633;BME280;28261;53.304;-6.284;2023-07-13T02:39:37;100836.22;;;13.18;99.94
42633;BME280;28261;53.304;-6.284;2023-07-13T02:41:41;100832.59;;;13.19;99.35
42633;BME280;28261;53.304;-6.284;2023-07-13T02:43:46;100828.97;;;13.20;98.82
42633;BME280;28261;53.304;-6.284;2023-07-13T02:45:51;100828.97;;;13.20;99.06
42633;BME280;28261;53.304;-6.284;2023-07-13T02:47:55;100830.66;;;13.21;98.84
42633;BME280;28261;53.304;-6.284;2023-07-13T02:49:59;100827.91;;;13.23;98.28
42633;BME280;28261;53.304;-6.284;2023-07-13T02:52:03;100833.09;;;13.25;98.43
42633;BME280;28261;53.304;-6.284;2023-07-13T02:54:07;100835.78;;;13.25;98.95
42633;BME280;28261;53.304;-6.284;2023-07-13T02:56:11;100833.81;;;13.27;98.74
42633;BME280;28261;53.304;-6.284;2023-07-13T02:58:15;100830.19;;;13.28;98.32
42633;BME280;28261;53.304;-6.284;2023-07-13T03:00:19;100831.03;;;13.28;98.44
42633;BME280;28261;53.304;-6.284;2023-07-13T03:02:26;100832.88;;;13.28;98.81
42633;BME280;28261;53.304;-6.284;2023-07-13T03:04:31;100835.53;;;13.28;98.77
42633;BME280;28261;53.304;-6.284;2023-07-13T03:06:35;100838.31;;;13.26;97.95
42633;BME280;28261;53.304;-6.284;2023-07-13T03:08:39;100840.97;;;13.26;98.46
42633;BME280;28261;53.304;-6.284;2023-07-13T03:10:42;100841.09;;;13.25;97.90
42633;BME280;28261;53.304;-6.284;2023-07-13T03:12:47;100836.72;;;13.24;97.97
42633;BME280;28261;53.304;-6.284;2023-07-13T03:14:58;100836.97;;;13.20;97.94
42633;BME280;28261;53.304;-6.284;2023-07-13T03:17:02;100831.78;;;13.19;98.30
42633;BME280;28261;53.304;-6.284;2023-07-13T03:19:13;100837.31;;;13.16;98.40
42633;BME280;28261;53.304;-6.284;2023-07-13T03:21:21;100827.97;;;13.10;98.32
42633;BME280;28261;53.304;-6.284;2023-07-13T03:23:25;100825.56;;;13.07;99.08
42633;BME280;28261;53.304;-6.284;2023-07-13T03:25:30;100825.69;;;13.06;99.45
42633;BME280;28261;53.304;-6.284;2023-07-13T03:27:35;100827.72;;;13.02;99.94
42633;BME280;28261;53.304;-6.284;2023-07-13T03:29:42;100825.28;;;12.99;99.65
42633;BME280;28261;53.304;-6.284;2023-07-13T03:31:50;100821.88;;;12.97;99.86
42633;BME280;28261;53.304;-6.284;2023-07-13T03:33:57;100825.75;;;12.93;100.00
42633;BME280;28261;53.304;-6.284;2023-07-13T03:36:04;100828.75;;;12.88;100.00
42633;BME280;28261;53.304;-6.284;2023-07-13T03:38:08;100827.19;;;12.85;100.00
42633;BME280;28261;53.304;-6.284;2023-07-13T03:40:12;100826.44;;;12.83;100.00
42633;BME280;28261;53.304;-6.284;2023-07-13T03:42:18;100826.66;;;12.80;100.00
42633;BME280;28261;53.304;-6.284;2023-07-13T03:44:23;100831.25;;;12.78;100.00
42633;BME280;28261;53.304;-6.284;2023-07-13T03:46:30;100830.50;;;12.76;100.00
42633;BME280;28261;53.304;-6.284;2023-07-13T03:48:34;100828.94;;;12.74;100.00
42633;BME280;28261;53.304;-6.284;2023-07-13T03:50:40;100831.00;;;12.70;100.00
42633;BME280;28261;53.304;-6.284;2023-07-13T03:52:45;100835.78;;;12.65;100.00
42633;BME280;28261;53.304;-6.284;2023-07-13T03:54:50;100834.22;;;12.62;100.00
42633;BME280;28261;53.304;-6.284;2023-07-13T03:56:56;100847.63;;;12.61;100.00
42633;BME280;28261;53.304;-6.284;2023-07-13T03:59:01;100838.91;;;12.59;100.00
42633;BME280;28261;53.304;-6.284;2023-07-13T04:01:07;100839.75;;;12.59;100.00
42633;BME280;28261;53.304;-6.284;2023-07-13T04:03:10;100839.75;;;12.59;100.00
42633;BME280;28261;53.304;-6.284;2023-07-13T04:05:16;100834.31;;;12.61;100.00
42633;BME280;28261;53.304;-6.284;2023-07-13T04:07:21;100833.38;;;12.62;100.00
42633;BME280;28261;53.304;-6.284;2023-07-13T04:09:28;100833.13;;;12.65;100.00
42633;BME280;28261;53.304;-6.284;2023-07-13T04:11:31;100834.72;;;12.67;100.00
42633;BME280;28261;53.304;-6.284;2023-07-13T04:13:38;100831.19;;;12.67;100.00
42633;BME280;28261;53.304;-6.284;2023-07-13T04:15:43;100836.31;;;12.70;100.00
42633;BME280;28261;53.304;-6.284;2023-07-13T04:17:47;100835.97;;;12.75;100.00
42633;BME280;28261;53.304;-6.284;2023-07-13T04:19:51;100833.28;;;12.75;100.00
42633;BME280;28261;53.304;-6.284;2023-07-13T04:21:55;100827.63;;;12.79;100.00
42633;BME280;28261;53.304;-6.284;2023-07-13T04:23:59;100831.88;;;12.82;100.00
42633;BME280;28261;53.304;-6.284;2023-07-13T04:26:06;100829.00;;;12.85;100.00
42633;BME280;28261;53.304;-6.284;2023-07-13T04:28:12;100845.69;;;12.87;100.00
42633;BME280;28261;53.304;-6.284;2023-07-13T04:30:16;100837.56;;;12.89;100.00
42633;BME280;28261;53.304;-6.284;2023-07-13T04:32:20;100842.56;;;12.93;100.00
42633;BME280;28261;53.304;-6.284;2023-07-13T04:34:26;100845.13;;;12.95;100.00
42633;BME280;28261;53.304;-6.284;2023-07-13T04:36:31;100845.13;;;12.95;100.00
42633;BME280;28261;53.304;-6.284;2023-07-13T04:38:36;100851.03;;;12.98;100.00
42633;BME280;28261;53.304;-6.284;2023-07-13T04:40:40;100849.97;;;13.01;100.00
42633;BME280;28261;53.304;-6.284;2023-07-13T04:42:47;100848.88;;;13.03;100.00
42633;BME280;28261;53.304;-6.284;2023-07-13T04:44:51;100847.69;;;13.08;100.00
42633;BME280;28261;53.304;-6.284;2023-07-13T04:46:55;100844.78;;;13.11;100.00
42633;BME280;28261;53.304;-6.284;2023-07-13T04:49:00;100847.22;;;13.14;100.00
42633;BME280;28261;53.304;-6.284;2023-07-13T04:51:07;100856.88;;;13.15;100.00
42633;BME280;28261;53.304;-6.284;2023-07-13T04:53:11;100854.97;;;13.17;99.64
42633;BME280;28261;53.304;-6.284;2023-07-13T04:55:16;100862.84;;;13.18;99.64
42633;BME280;28261;53.304;-6.284;2023-07-13T04:57:21;100862.84;;;13.18;100.00
42633;BME280;28261;53.304;-6.284;2023-07-13T04:59:29;100864.78;;;13.16;99.64
42633;BME280;28261;53.304;-6.284;2023-07-13T05:01:32;100862.97;;;13.17;100.00
42633;BME280;28261;53.304;-6.284;2023-07-13T05:03:36;100860.19;;;13.18;100.00
42633;BME280;28261;53.304;-6.284;2023-07-13T05:05:41;100860.94;;;13.20;99.97
42633;BME280;28261;53.304;-6.284;2023-07-13T05:07:45;100860.56;;;13.25;100.00
42633;BME280;28261;53.304;-6.284;2023-07-13T05:09:50;100854.66;;;13.33;100.00
42633;BME280;28261;53.304;-6.284;2023-07-13T05:11:55;100859.09;;;13.45;99.90
42633;BME280;28261;53.304;-6.284;2023-07-13T05:13:59;100864.41;;;13.68;99.73
42633;BME280;28261;53.304;-6.284;2023-07-13T05:16:06;100860.78;;;14.14;98.48
42633;BME280;28261;53.304;-6.284;2023-07-13T05:18:13;100858.47;;;14.76;96.41
42633;BME280;28261;53.304;-6.284;2023-07-13T05:20:18;100863.16;;;15.37;93.44
42633;BME280;28261;53.304;-6.284;2023-07-13T05:22:22;100863.63;;;15.95;90.92
42633;BME280;28261;53.304;-6.284;2023-07-13T05:24:26;100862.66;;;16.46;88.18
42633;BME280;28261;53.304;-6.284;2023-07-13T05:26:30;100865.28;;;16.97;85.77
42633;BME280;28261;53.304;-6.284;2023-07-13T05:28:34;100866.94;;;17.37;84.14
42633;BME280;28261;53.304;-6.284;2023-07-13T05:30:37;100873.63;;;17.70;81.76
42633;BME280;28261;53.304;-6.284;2023-07-13T05:32:44;100867.69;;;17.67;81.12
42633;BME280;28261;53.304;-6.284;2023-07-13T05:34:48;100866.63;;;17.40;81.19
42633;BME280;28261;53.304;-6.284;2023-07-13T05:36:51;100866.25;;;17.05;82.14
42633;BME280;28261;53.304;-6.284;2023-07-13T05:38:55;100859.47;;;16.72;83.06
42633;BME280;28261;53.304;-6.284;2023-07-13T05:40:59;100868.72;;;16.48;84.56
42633;BME280;28261;53.304;-6.284;2023-07-13T05:43:07;100866.56;;;16.22;85.02
42633;BME280;28261;53.304;-6.284;2023-07-13T05:45:11;100865.06;;;15.99;86.01
42633;BME280;28261;53.304;-6.284;2023-07-13T05:47:14;100866.91;;;15.77;86.79
42633;BME280;28261;53.304;-6.284;2023-07-13T05:49:21;100871.88;;;15.61;87.73
42633;BME280;28261;53.304;-6.284;2023-07-13T05:51:25;100872.38;;;15.45;88.29
42633;BME280;28261;53.304;-6.284;2023-07-13T05:53:29;100875.34;;;15.30;88.84
42633;BME280;28261;53.304;-6.284;2023-07-13T05:55:33;100866.44;;;15.20;89.02
42633;BME280;28261;53.304;-6.284;2023-07-13T05:57:36;100861.59;;;15.14;89.85
42633;BME280;28261;53.304;-6.284;2023-07-13T05:59:39;100860.03;;;15.11;89.77
42633;BME280;28261;53.304;-6.284;2023-07-13T06:01:44;100873.66;;;15.08;89.39
42633;BME280;28261;53.304;-6.284;2023-07-13T06:03:50;100873.19;;;15.03;89.82
42633;BME280;28261;53.304;-6.284;2023-07-13T06:05:55;100883.25;;;14.99;90.04
42633;BME280;28261;53.304;-6.284;2023-07-13T06:08:00;100885.50;;;14.94;90.49
42633;BME280;28261;53.304;-6.284;2023-07-13T06:10:05;100885.38;;;14.96;90.25
42633;BME280;28261;53.304;-6.284;2023-07-13T06:12:08;100877.72;;;14.91;90.33
42633;BME280;28261;53.304;-6.284;2023-07-13T06:14:13;100882.69;;;14.96;89.87
42633;BME280;28261;53.304;-6.284;2023-07-13T06:16:17;100885.31;;;15.07;89.78
42633;BME280;28261;53.304;-6.284;2023-07-13T06:18:22;100884.66;;;15.36;89.13
42633;BME280;28261;53.304;-6.284;2023-07-13T06:20:25;100891.03;;;15.66;87.75
42633;BME280;28261;53.304;-6.284;2023-07-13T06:22:31;100893.97;;;15.84;86.87
42633;BME280;28261;53.304;-6.284;2023-07-13T06:24:35;100897.44;;;15.96;86.22
42633;BME280;28261;53.304;-6.284;2023-07-13T06:26:39;100900.91;;;16.17;85.55
42633;BME280;28261;53.304;-6.284;2023-07-13T06:28:43;100899.19;;;16.67;84.21
42633;BME280;28261;53.304;-6.284;2023-07-13T06:30:46;100890.34;;;17.15;81.59
42633;BME280;28261;53.304;-6.284;2023-07-13T06:32:50;100900.59;;;17.69;79.11
42633;BME280;28261;53.304;-6.284;2023-07-13T06:34:54;100911.91;;;18.38;76.72
42633;BME280;28261;53.304;-6.284;2023-07-13T06:36:58;100904.50;;;18.96;73.72
42633;BME280;28261;53.304;-6.284;2023-07-13T06:39:05;100905.03;;;18.99;73.02
42633;BME280;28261;53.304;-6.284;2023-07-13T06:41:10;100900.53;;;18.72;73.39
42633;BME280;28261;53.304;-6.284;2023-07-13T06:43:15;100908.16;;;18.31;75.17
42633;BME280;28261;53.304;-6.284;2023-07-13T06:45:19;100903.22;;;17.88;76.78
42633;BME280;28261;53.304;-6.284;2023-07-13T06:47:23;100895.25;;;17.49;78.31
42633;BME280;28261;53.304;-6.284;2023-07-13T06:49:28;100891.22;;;17.25;79.59
42633;BME280;28261;53.304;-6.284;2023-07-13T06:51:31;100889.22;;;17.28;79.33
42633;BME280;28261;53.304;-6.284;2023-07-13T06:53:34;100891.47;;;17.42;78.76
42633;BME280;28261;53.304;-6.284;2023-07-13T06:55:40;100894.84;;;17.54;78.04
42633;BME280;28261;53.304;-6.284;2023-07-13T06:57:43;100894.56;;;17.47;77.70
42633;BME280;28261;53.304;-6.284;2023-07-13T06:59:47;100907.41;;;17.34;78.04
42633;BME280;28261;53.304;-6.284;2023-07-13T07:01:51;100902.09;;;17.14;78.70
42633;BME280;28261;53.304;-6.284;2023-07-13T07:03:55;100905.41;;;16.87;79.84
42633;BME280;28261;53.304;-6.284;2023-07-13T07:06:01;100909.06;;;16.76;80.65
42633;BME280;28261;53.304;-6.284;2023-07-13T07:08:05;100912.13;;;16.62;81.19
42633;BME280;28261;53.304;-6.284;2023-07-13T07:10:09;100908.75;;;16.50;81.54
42633;BME280;28261;53.304;-6.284;2023-07-13T07:12:15;100909.94;;;16.36;82.17
42633;BME280;28261;53.304;-6.284;2023-07-13T07:14:19;100917.94;;;16.26;82.69
42633;BME280;28261;53.304;-6.284;2023-07-13T07:16:25;100916.94;;;16.17;83.33
42633;BME280;28261;53.304;-6.284;2023-07-13T07:18:29;100913.38;;;16.07;83.54
42633;BME280;28261;53.304;-6.284;2023-07-13T07:20:33;100916.59;;;16.01;84.04
42633;BME280;28261;53.304;-6.284;2023-07-13T07:22:37;100916.66;;;15.89;84.29
42633;BME280;28261;53.304;-6.284;2023-07-13T07:24:40;100925.38;;;15.82;84.39
42633;BME280;28261;53.304;-6.284;2023-07-13T07:26:44;100926.81;;;15.74;84.92
42633;BME280;28261;53.304;-6.284;2023-07-13T07:28:53;100922.59;;;15.72;85.29
42633;BME280;28261;53.304;-6.284;2023-07-13T07:31:17;100922.59;;;15.72;85.66
42633;BME280;28261;53.304;-6.284;2023-07-13T07:33:24;100925.28;;;15.72;85.84
42633;BME280;28261;53.304;-6.284;2023-07-13T07:35:29;100927.69;;;15.75;85.61
42633;BME280;28261;53.304;-6.284;2023-07-13T07:37:39;100930.34;;;15.75;85.50
42633;BME280;28261;53.304;-6.284;2023-07-13T07:39:47;100926.81;;;15.74;85.58
42633;BME280;28261;53.304;-6.284;2023-07-13T07:42:12;100932.16;;;15.74;85.96
42633;BME280;28261;53.304;-6.284;2023-07-13T07:44:19;100936.25;;;15.79;86.20
42633;BME280;28261;53.304;-6.284;2023-07-13T07:46:23;100934.34;;;15.81;86.10
42633;BME280;28261;53.304;-6.284;2023-07-13T07:48:27;100939.94;;;15.78;86.22
42633;BME280;28261;53.304;-6.284;2023-07-13T07:50:32;100940.06;;;15.76;86.22
42633;BME280;28261;53.304;-6.284;2023-07-13T07:52:37;100942.00;;;15.74;86.44
42633;BME280;28261;53.304;-6.284;2023-07-13T07:54:42;100945.66;;;15.73;86.80
42633;BME280;28261;53.304;-6.284;2023-07-13T07:56:51;100944.00;;;15.72;86.65
42633;BME280;28261;53.304;-6.284;2023-07-13T07:58:59;100942.56;;;15.68;86.78
42633;BME280;28261;53.304;-6.284;2023-07-13T08:01:08;100948.13;;;15.65;87.14
42633;BME280;28261;53.304;-6.284;2023-07-13T08:03:15;100945.59;;;15.63;87.50
42633;BME280;28261;53.304;-6.284;2023-07-13T08:05:25;100942.94;;;15.63;87.41
42633;BME280;28261;53.304;-6.284;2023-07-13T08:07:34;100941.13;;;15.64;87.75
42633;BME280;28261;53.304;-6.284;2023-07-13T08:09:39;100935.88;;;15.62;88.32
42633;BME280;28261;53.304;-6.284;2023-07-13T08:11:47;100939.41;;;15.63;88.59
42633;BME280;28261;53.304;-6.284;2023-07-13T08:13:59;100944.50;;;15.66;88.74
42633;BME280;28261;53.304;-6.284;2023-07-13T08:16:04;100944.09;;;15.70;88.52
42633;BME280;28261;53.304;-6.284;2023-07-13T08:18:11;100939.81;;;15.79;88.41
42633;BME280;28261;53.304;-6.284;2023-07-13T08:20:17;100944.97;;;15.92;87.84
42633;BME280;28261;53.304;-6.284;2023-07-13T08:22:21;100945.31;;;16.08;87.38
42633;BME280;28261;53.304;-6.284;2023-07-13T08:24:27;100939.75;;;16.21;86.89
42633;BME280;28261;53.304;-6.284;2023-07-13T08:26:35;100946.13;;;16.30;85.92
42633;BME280;28261;53.304;-6.284;2023-07-13T08:28:41;100940.63;;;16.32;86.09
42633;BME280;28261;53.304;-6.284;2023-07-13T08:30:46;100938.09;;;16.30;85.97
42633;BME280;28261;53.304;-6.284;2023-07-13T08:32:53;100945.66;;;16.25;85.74
42633;BME280;28261;53.304;-6.284;2023-07-13T08:35:01;100951.03;;;16.25;85.69
42633;BME280;28261;53.304;-6.284;2023-07-13T08:37:09;100946.81;;;16.22;85.83
42633;BME280;28261;53.304;-6.284;2023-07-13T08:39:19;100946.81;;;16.22;85.76
42633;BME280;28261;53.304;-6.284;2023-07-13T08:41:24;100951.75;;;16.27;86.06
42633;BME280;28261;53.304;-6.284;2023-07-13T08:43:33;100943.16;;;16.33;85.11
42633;BME280;28261;53.304;-6.284;2023-07-13T08:45:43;100941.09;;;16.37;84.76
42633;BME280;28261;53.304;-6.284;2023-07-13T08:47:56;100937.56;;;16.36;84.45
42633;BME280;28261;53.304;-6.284;2023-07-13T08:50:13;100931.34;;;16.36;84.51
42633;BME280;28261;53.304;-6.284;2023-07-13T08:52:28;100933.50;;;16.42;84.54
42633;BME280;28261;53.304;-6.284;2023-07-13T08:54:37;100928.91;;;16.54;84.31
42633;BME280;28261;53.304;-6.284;2023-07-13T08:56:45;100936.38;;;16.70;83.77
42633;BME280;28261;53.304;-6.284;2023-07-13T08:58:53;100927.00;;;16.85;82.59
42633;BME280;28261;53.304;-6.284;2023-07-13T09:01:03;100931.25;;;16.98;81.02
42633;BME280;28261;53.304;-6.284;2023-07-13T09:03:18;100934.19;;;17.04;80.37
42633;BME280;28261;53.304;-6.284;2023-07-13T09:05:30;100930.28;;;17.18;79.89
42633;BME280;28261;53.304;-6.284;2023-07-13T09:07:51;100925.59;;;17.40;79.24
42633;BME280;28261;53.304;-6.284;2023-07-13T09:10:08;100926.72;;;17.57;77.69
42633;BME280;28261;53.304;-6.284;2023-07-13T09:12:20;100925.41;;;17.71;76.69
42633;BME280;28261;53.304;-6.284;2023-07-13T09:14:42;100930.59;;;17.82;74.58
42633;BME280;28261;53.304;-6.284;2023-07-13T09:16:48;100924.50;;;17.90;74.50
42633;BME280;28261;53.304;-6.284;2023-07-13T09:18:58;100926.34;;;17.99;73.90
42633;BME280;28261;53.304;-6.284;2023-07-13T09:21:09;100920.38;;;18.05;73.68
42633;BME280;28261;53.304;-6.284;2023-07-13T09:23:19;100921.75;;;18.19;73.06
42633;BME280;28261;53.304;-6.284;2023-07-13T09:25:29;100927.34;;;18.36;71.98
42633;BME280;28261;53.304;-6.284;2023-07-13T09:27:38;100922.75;;;18.46;71.76
42633;BME280;28261;53.304;-6.284;2023-07-13T09:29:47;100925.28;;;18.48;71.70
42633;BME280;28261;53.304;-6.284;2023-07-13T09:31:56;100929.00;;;18.37;71.83
42633;BME280;28261;53.304;-6.284;2023-07-13T09:34:07;100926.25;;;18.19;71.91
42633;BME280;28261;53.304;-6.284;2023-07-13T09:36:32;100925.63;;;17.97;72.31
42633;BME280;28261;53.304;-6.284;2023-07-13T09:38:38;100930.03;;;17.88;73.43
42633;BME280;28261;53.304;-6.284;2023-07-13T09:40:56;100923.56;;;17.81;73.34
42633;BME280;28261;53.304;-6.284;2023-07-13T09:43:03;100930.75;;;17.81;74.23
42633;BME280;28261;53.304;-6.284;2023-07-13T09:45:10;100928.22;;;17.79;74.06
42633;BME280;28261;53.304;-6.284;2023-07-13T09:47:17;100937.09;;;17.80;74.32
42633;BME280;28261;53.304;-6.284;2023-07-13T09:49:24;100938.25;;;17.77;73.64
42633;BME280;28261;53.304;-6.284;2023-07-13T09:51:30;100944.16;;;17.81;74.49
42633;BME280;28261;53.304;-6.284;2023-07-13T09:53:36;100939.19;;;17.86;73.52
42633;BME280;28261;53.304;-6.284;2023-07-13T09:55:42;100948.38;;;17.93;72.85
42633;BME280;28261;53.304;-6.284;2023-07-13T09:57:47;100939.63;;;18.01;72.75
42633;BME280;28261;53.304;-6.284;2023-07-13T09:59:54;100936.84;;;18.20;72.25
42633;BME280;28261;53.304;-6.284;2023-07-13T10:02:01;100938.28;;;18.42;71.17
42633;BME280;28261;53.304;-6.284;2023-07-13T10:04:11;100937.66;;;18.58;69.83
42633;BME280;28261;53.304;-6.284;2023-07-13T10:06:18;100927.72;;;18.69;68.72
42633;BME280;28261;53.304;-6.284;2023-07-13T10:08:27;100929.09;;;18.73;68.39
42633;BME280;28261;53.304;-6.284;2023-07-13T10:10:33;100931.78;;;18.73;67.65
42633;BME280;28261;53.304;-6.284;2023-07-13T10:12:39;100939.53;;;18.76;67.97
42633;BME280;28261;53.304;-6.284;2023-07-13T10:14:43;100934.31;;;18.74;67.60
42633;BME280;28261;53.304;-6.284;2023-07-13T10:16:55;100942.13;;;18.68;67.97
42633;BME280;28261;53.304;-6.284;2023-07-13T10:19:04;100947.00;;;18.54;67.84
42633;BME280;28261;53.304;-6.284;2023-07-13T10:21:12;100951.69;;;18.52;67.54
42633;BME280;28261;53.304;-6.284;2023-07-13T10:23:23;100954.06;;;18.55;67.44
42633;BME280;28261;53.304;-6.284;2023-07-13T10:25:39;100953.41;;;18.71;66.37
42633;BME280;28261;53.304;-6.284;2023-07-13T10:27:46;100943.25;;;18.93;65.60
42633;BME280;28261;53.304;-6.284;2023-07-13T10:29:55;100937.28;;;19.17;65.03
42633;BME280;28261;53.304;-6.284;2023-07-13T10:32:04;100932.97;;;19.42;64.53
42633;BME280;28261;53.304;-6.284;2023-07-13T10:34:13;100944.53;;;19.61;63.07
42633;BME280;28261;53.304;-6.284;2023-07-13T10:36:27;100933.38;;;19.74;63.28
42633;BME280;28261;53.304;-6.284;2023-07-13T10:38:34;100936.81;;;19.84;62.45
42633;BME280;28261;53.304;-6.284;2023-07-13T10:40:42;100940.53;;;19.91;61.37
42633;BME280;28261;53.304;-6.284;2023-07-13T10:42:50;100935.91;;;20.02;60.91
42633;BME280;28261;53.304;-6.284;2023-07-13T10:44:57;100938.28;;;20.05;60.13
42633;BME280;28261;53.304;-6.284;2023-07-13T10:47:02;100941.28;;;20.02;58.90
42633;BME280;28261;53.304;-6.284;2023-07-13T10:49:12;100940.03;;;19.88;59.20